createdAt,value
2017-09-06T00:02:01.120Z,32.80
2017-09-06T00:04:28.638Z,33.20
2017-09-06T00:06:56.064Z,32.70
2017-09-06T00:09:23.551Z,32.30
2017-09-06T00:11:51.016Z,31.00
2017-09-06T00:14:18.471Z,30.50
2017-09-06T00:16:45.924Z,30.30
2017-09-06T00:19:14.246Z,30.40
2017-09-06T00:21:41.669Z,30.10
2017-09-06T00:24:09.129Z,30.10
2017-09-06T00:26:36.569Z,30.20
2017-09-06T00:29:04.000Z,30.40
2017-09-06T00:31:31.586Z,30.60
2017-09-06T00:33:59.034Z,31.00
2017-09-06T00:36:26.453Z,31.00
2017-09-06T00:38:53.955Z,30.80
2017-09-06T00:41:21.414Z,30.60
2017-09-06T00:43:48.836Z,30.70
2017-09-06T00:46:16.325Z,31.10
2017-09-06T00:48:43.778Z,31.00
2017-09-06T00:51:11.235Z,31.00
2017-09-06T00:53:38.660Z,31.10
2017-09-06T00:56:06.480Z,31.10
2017-09-06T00:58:34.211Z,31.80
2017-09-06T01:01:01.644Z,31.10
2017-09-06T01:03:29.126Z,31.10
2017-09-06T01:05:56.544Z,31.20
2017-09-06T01:08:23.961Z,30.80
2017-09-06T01:10:51.496Z,30.20
2017-09-06T01:13:18.916Z,29.90
2017-09-06T01:15:46.347Z,29.60
2017-09-06T01:18:13.769Z,29.50
2017-09-06T01:20:41.197Z,29.20
2017-09-06T01:23:08.792Z,29.10
2017-09-06T01:25:36.240Z,28.90
2017-09-06T01:28:03.692Z,28.80
2017-09-06T01:30:31.120Z,28.80
2017-09-06T01:32:58.539Z,28.80
2017-09-06T01:35:25.964Z,29.10
2017-09-06T01:37:53.520Z,29.10
2017-09-06T01:40:21.275Z,29.10
2017-09-06T01:42:48.733Z,29.10
2017-09-06T01:45:16.193Z,29.10
2017-09-06T01:47:43.608Z,29.30
2017-09-06T01:50:11.097Z,29.60
2017-09-06T01:52:38.549Z,29.80
2017-09-06T01:55:05.956Z,30.80
2017-09-06T01:57:33.468Z,31.50
2017-09-06T02:00:00.923Z,31.50
2017-09-06T02:02:28.385Z,32.10
2017-09-06T02:04:55.840Z,33.30
2017-09-06T02:07:23.259Z,33.90
2017-09-06T02:09:50.749Z,34.30
2017-09-06T02:12:18.205Z,35.40
2017-09-06T02:14:45.662Z,36.00
2017-09-06T02:17:13.088Z,36.00
2017-09-06T02:19:40.585Z,36.10
2017-09-06T02:22:08.033Z,37.00
2017-09-06T02:24:35.448Z,37.50
2017-09-06T02:27:02.886Z,37.60
2017-09-06T02:29:30.409Z,37.50
2017-09-06T02:31:57.832Z,37.80
2017-09-06T02:34:25.320Z,37.90
2017-09-06T02:36:52.774Z,38.00
2017-09-06T02:39:20.197Z,37.90
2017-09-06T02:41:47.688Z,38.00
2017-09-06T02:44:15.136Z,37.90
2017-09-06T02:46:42.564Z,38.50
2017-09-06T02:49:10.079Z,38.70
2017-09-06T02:51:37.816Z,38.70
2017-09-06T02:54:05.272Z,38.90
2017-09-06T02:56:32.704Z,39.10
2017-09-06T02:59:00.188Z,39.40
2017-09-06T03:01:27.603Z,39.30
2017-09-06T03:03:55.094Z,39.60
2017-09-06T03:06:22.550Z,40.10
2017-09-06T03:08:49.976Z,40.10
2017-09-06T03:11:17.462Z,40.00
2017-09-06T03:13:44.884Z,39.60
2017-09-06T03:16:12.307Z,40.10
2017-09-06T03:18:39.762Z,40.10
2017-09-06T03:21:07.285Z,40.30
2017-09-06T03:23:34.744Z,40.20
2017-09-06T03:26:02.199Z,40.80
2017-09-06T03:28:29.623Z,40.10
2017-09-06T03:30:57.090Z,40.10
2017-09-06T03:33:24.572Z,39.50
2017-09-06T03:35:52.037Z,39.50
2017-09-06T03:38:19.493Z,39.50
2017-09-06T03:40:47.132Z,39.50
2017-09-06T03:43:14.709Z,39.70
2017-09-06T03:45:42.124Z,40.10
2017-09-06T03:48:09.628Z,40.00
2017-09-06T03:50:37.076Z,40.00
2017-09-06T03:53:05.448Z,40.00
2017-09-06T03:55:32.929Z,40.00
2017-09-06T03:58:00.357Z,40.00
2017-09-06T04:00:27.824Z,40.00
2017-09-06T04:02:55.244Z,39.70
2017-09-06T04:05:22.729Z,39.70
2017-09-06T04:07:50.145Z,38.80
2017-09-06T04:10:17.645Z,39.50
2017-09-06T04:12:45.063Z,40.00
2017-09-06T04:15:12.494Z,40.00
2017-09-06T04:17:39.913Z,40.50
2017-09-06T04:20:07.376Z,40.70
2017-09-06T04:22:34.829Z,40.70
2017-09-06T04:25:02.385Z,40.70
2017-09-06T04:27:29.835Z,40.50
2017-09-06T04:29:57.260Z,40.40
2017-09-06T04:32:24.753Z,40.60
2017-09-06T04:34:52.209Z,40.90
2017-09-06T04:37:19.624Z,41.00
2017-09-06T04:39:47.068Z,41.10
2017-09-06T04:42:14.577Z,41.80
2017-09-06T04:44:42.025Z,41.50
2017-09-06T04:47:09.444Z,41.60
2017-09-06T04:49:36.946Z,41.40
2017-09-06T04:52:04.397Z,41.00
2017-09-06T04:54:32.120Z,40.90
2017-09-06T04:56:59.534Z,41.00
2017-09-06T04:59:26.998Z,40.60
2017-09-06T05:01:54.532Z,40.80
2017-09-06T05:04:21.956Z,40.80
2017-09-06T05:06:49.385Z,40.50
2017-09-06T05:09:16.817Z,40.20
2017-09-06T05:11:44.359Z,40.20
2017-09-06T05:14:11.812Z,40.10
2017-09-06T05:16:39.241Z,40.10
2017-09-06T05:19:06.713Z,40.00
2017-09-06T05:21:34.141Z,39.90
2017-09-06T05:24:01.653Z,39.60
2017-09-06T05:26:29.089Z,40.40
2017-09-06T05:28:56.506Z,40.80
2017-09-06T05:31:23.937Z,40.30
2017-09-06T05:33:51.389Z,39.80
2017-09-06T05:36:18.814Z,39.40
2017-09-06T05:38:46.236Z,39.30
2017-09-06T05:41:13.664Z,39.60
2017-09-06T05:43:41.087Z,39.90
2017-09-06T05:46:08.539Z,39.10
2017-09-06T05:48:36.204Z,38.90
2017-09-06T05:51:03.640Z,38.80
2017-09-06T05:53:31.121Z,38.40
2017-09-06T05:55:58.544Z,38.60
2017-09-06T05:58:26.037Z,38.50
2017-09-06T06:00:53.793Z,38.20
2017-09-06T06:03:21.220Z,38.10
2017-09-06T06:05:48.684Z,38.00
2017-09-06T06:08:16.169Z,38.40
2017-09-06T06:10:43.620Z,38.50
2017-09-06T06:13:11.380Z,38.50
2017-09-06T06:15:38.800Z,38.20
2017-09-06T06:18:06.225Z,38.60
2017-09-06T06:20:33.644Z,38.40
2017-09-06T06:23:01.212Z,38.10
2017-09-06T06:25:28.629Z,38.00
2017-09-06T06:27:56.066Z,37.80
2017-09-06T06:30:23.579Z,38.10
2017-09-06T06:32:51.009Z,37.70
2017-09-06T06:35:18.430Z,37.80
2017-09-06T06:37:45.944Z,37.60
2017-09-06T06:40:13.401Z,37.50
2017-09-06T06:42:40.833Z,37.00
2017-09-06T06:45:08.309Z,37.40
2017-09-06T06:47:35.771Z,36.80
2017-09-06T06:50:03.222Z,36.90
2017-09-06T06:52:30.670Z,37.10
2017-09-06T06:54:58.102Z,37.30
2017-09-06T06:57:25.533Z,37.00
2017-09-06T06:59:53.047Z,36.30
2017-09-06T07:02:20.504Z,35.90
2017-09-06T07:04:47.965Z,35.50
2017-09-06T07:07:15.392Z,35.50
2017-09-06T07:09:42.826Z,35.60
2017-09-06T07:12:10.327Z,35.00
2017-09-06T07:14:37.762Z,35.40
2017-09-06T07:17:05.192Z,34.50
2017-09-06T07:19:32.616Z,34.80
2017-09-06T07:22:00.165Z,35.40
2017-09-06T07:24:27.589Z,34.90
2017-09-06T07:26:55.069Z,34.70
2017-09-06T07:29:22.528Z,34.90
2017-09-06T07:31:49.943Z,35.50
2017-09-06T07:34:17.381Z,35.20
2017-09-06T07:36:44.808Z,34.60
2017-09-06T07:39:12.269Z,34.20
2017-09-06T07:41:39.812Z,34.00
2017-09-06T07:44:07.564Z,34.20
2017-09-06T07:46:35.027Z,34.00
2017-09-06T07:49:02.477Z,33.10
2017-09-06T07:51:29.895Z,31.60
2017-09-06T07:53:57.522Z,32.00
2017-09-06T07:56:25.153Z,32.10
2017-09-06T07:58:52.613Z,31.60
2017-09-06T08:01:20.053Z,31.40
2017-09-06T08:03:47.465Z,31.60
2017-09-06T08:06:14.976Z,32.00
2017-09-06T08:08:42.400Z,32.00
2017-09-06T08:11:09.901Z,32.10
2017-09-06T08:13:37.310Z,31.10
2017-09-06T08:16:04.748Z,31.20
2017-09-06T08:18:32.182Z,31.00
2017-09-06T08:20:59.729Z,31.30
2017-09-06T08:23:27.148Z,31.70
2017-09-06T08:25:54.579Z,31.00
2017-09-06T08:28:21.996Z,31.00
2017-09-06T08:30:49.424Z,30.70
2017-09-06T08:33:16.853Z,31.00
2017-09-06T08:35:44.368Z,31.10
2017-09-06T08:38:11.912Z,31.20
2017-09-06T08:40:39.349Z,31.30
2017-09-06T08:43:06.768Z,31.40
2017-09-06T08:45:34.283Z,31.30
2017-09-06T08:48:01.741Z,30.70
2017-09-06T08:50:29.173Z,31.50
2017-09-06T08:52:56.603Z,30.70
2017-09-06T08:55:24.035Z,30.00
2017-09-06T08:57:51.469Z,29.90
2017-09-06T09:00:18.944Z,30.00
2017-09-06T09:02:46.373Z,28.40
2017-09-06T09:05:13.840Z,28.30
2017-09-06T09:07:41.278Z,28.70
2017-09-06T09:10:08.780Z,28.30
2017-09-06T09:12:36.297Z,27.80
2017-09-06T09:15:03.712Z,28.40
2017-09-06T09:17:31.137Z,27.90
2017-09-06T09:19:58.573Z,27.70
2017-09-06T09:22:26.020Z,27.60
2017-09-06T09:24:53.440Z,26.20
2017-09-06T09:27:20.943Z,25.50
2017-09-06T09:29:48.407Z,25.00
2017-09-06T09:32:15.953Z,27.70
2017-09-06T09:34:43.409Z,27.80
2017-09-06T09:37:10.885Z,29.70
2017-09-06T09:39:38.632Z,29.10
2017-09-06T09:42:06.081Z,27.60
2017-09-06T09:44:33.513Z,27.30
2017-09-06T09:47:00.943Z,27.60
2017-09-06T09:49:28.369Z,27.50
2017-09-06T09:51:55.831Z,26.50
2017-09-06T09:54:23.249Z,25.30
2017-09-06T09:56:50.828Z,25.80
2017-09-06T09:59:18.469Z,24.30
2017-09-06T10:01:46.021Z,24.10
2017-09-06T10:04:13.444Z,22.80
2017-09-06T10:06:40.973Z,21.80
2017-09-06T10:09:08.424Z,21.90
2017-09-06T10:11:35.872Z,22.10
2017-09-06T10:14:03.512Z,20.90
2017-09-06T10:16:30.958Z,21.80
2017-09-06T10:18:58.543Z,20.60
2017-09-06T10:21:26.001Z,20.40
2017-09-06T10:23:53.463Z,20.00
2017-09-06T10:26:21.223Z,18.20
2017-09-06T10:28:48.651Z,18.10
2017-09-06T10:31:16.130Z,18.00
2017-09-06T10:33:43.601Z,15.90
2017-09-06T10:36:11.371Z,15.00
2017-09-06T10:38:38.812Z,14.90
2017-09-06T10:41:06.261Z,14.70
2017-09-06T10:43:33.693Z,14.60
2017-09-06T10:46:01.223Z,14.40
2017-09-06T10:48:28.957Z,15.10
2017-09-06T10:50:56.495Z,15.00
2017-09-06T10:53:24.111Z,15.20
2017-09-06T10:55:51.523Z,15.20
2017-09-06T10:58:18.962Z,14.80
2017-09-06T11:00:46.534Z,15.40
2017-09-06T11:03:14.175Z,13.70
2017-09-06T11:05:41.745Z,14.90
2017-09-06T11:08:09.164Z,14.20
2017-09-06T11:10:36.600Z,11.40
2017-09-06T11:13:04.060Z,12.70
2017-09-06T11:15:31.572Z,11.80
2017-09-06T11:17:59.014Z,12.20
2017-09-06T11:20:26.481Z,11.70
2017-09-06T11:22:53.916Z,10.80
2017-09-06T11:25:21.396Z,10.80
2017-09-06T11:27:48.813Z,11.00
2017-09-06T11:30:16.309Z,12.00
2017-09-06T11:32:43.762Z,11.90
2017-09-06T11:35:11.245Z,10.90
2017-09-06T11:37:38.853Z,11.00
2017-09-06T11:40:06.445Z,11.90
2017-09-06T11:42:33.907Z,10.20
2017-09-06T11:45:01.368Z,10.90
2017-09-06T11:47:28.760Z,10.80
2017-09-06T11:49:56.197Z,10.30
2017-09-06T11:52:23.632Z,9.00
2017-09-06T11:54:51.178Z,9.70
2017-09-06T11:57:18.636Z,9.70
2017-09-06T11:59:46.066Z,10.40
2017-09-06T12:02:13.548Z,9.50
2017-09-06T12:04:41.011Z,9.50
2017-09-06T12:07:08.432Z,10.20
2017-09-06T12:09:35.873Z,10.60
2017-09-06T12:12:03.305Z,11.60
2017-09-06T12:14:30.728Z,12.90
2017-09-06T12:16:58.210Z,12.50
2017-09-06T12:19:25.645Z,12.50
2017-09-06T12:21:53.206Z,12.10
2017-09-06T12:24:20.833Z,12.10
2017-09-06T12:26:48.437Z,12.00
2017-09-06T12:29:15.847Z,11.40
2017-09-06T12:31:43.329Z,10.10
2017-09-06T12:34:10.755Z,10.90
2017-09-06T12:36:38.186Z,11.10
2017-09-06T12:39:05.607Z,11.50
2017-09-06T12:41:33.129Z,9.90
2017-09-06T12:44:00.609Z,11.40
2017-09-06T12:46:28.058Z,10.70
2017-09-06T12:48:55.529Z,11.20
2017-09-06T12:51:22.995Z,9.60
2017-09-06T12:53:50.608Z,8.30
2017-09-06T12:56:18.044Z,7.50
2017-09-06T12:58:45.462Z,7.70
2017-09-06T13:01:13.125Z,6.40
2017-09-06T13:03:40.560Z,5.80
2017-09-06T13:06:07.999Z,5.80
2017-09-06T13:08:35.419Z,5.90
2017-09-06T13:11:02.866Z,4.50
2017-09-06T13:13:30.272Z,5.20
2017-09-06T13:15:57.852Z,5.20
2017-09-06T13:18:25.308Z,3.60
2017-09-06T13:20:52.731Z,4.80
2017-09-06T13:23:20.217Z,4.60
2017-09-06T13:25:47.691Z,4.10
2017-09-06T13:28:15.316Z,4.40
2017-09-06T13:30:42.760Z,3.10
2017-09-06T13:33:10.269Z,1.00
2017-09-06T13:35:37.718Z,3.50
2017-09-06T13:38:05.260Z,2.60
2017-09-06T13:40:32.721Z,3.00
2017-09-06T13:43:00.469Z,2.20
2017-09-06T13:45:27.940Z,2.60
2017-09-06T13:47:55.389Z,3.00
2017-09-06T13:50:22.853Z,3.60
2017-09-06T13:52:51.100Z,1.40
2017-09-06T13:55:18.560Z,1.50
2017-09-06T13:57:46.060Z,2.00
2017-09-06T14:00:13.481Z,2.90
2017-09-06T14:02:41.085Z,4.20
2017-09-06T14:05:08.673Z,2.30
2017-09-06T14:07:36.189Z,1.90
2017-09-06T14:10:03.635Z,3.40
2017-09-06T14:12:31.180Z,3.10
2017-09-06T14:14:58.649Z,2.60
2017-09-06T14:17:26.272Z,2.90
2017-09-06T14:19:53.725Z,1.70
2017-09-06T14:22:21.150Z,1.50
2017-09-06T14:24:48.642Z,3.50
2017-09-06T14:27:16.145Z,2.60
2017-09-06T14:29:43.569Z,3.20
2017-09-06T14:32:11.072Z,4.70
2017-09-06T14:34:38.509Z,3.50
2017-09-06T14:37:05.928Z,4.70
2017-09-06T14:39:33.504Z,3.70
2017-09-06T14:42:00.936Z,3.60
2017-09-06T14:44:28.352Z,5.20
2017-09-06T14:46:56.286Z,3.30
2017-09-06T14:49:23.858Z,3.90
2017-09-06T14:51:51.400Z,6.20
2017-09-06T14:54:18.877Z,5.80
2017-09-06T14:56:46.485Z,5.20
2017-09-06T14:59:13.992Z,5.80
2017-09-06T15:01:41.541Z,8.20
2017-09-06T15:04:08.964Z,7.90
2017-09-06T15:06:36.393Z,4.00
2017-09-06T15:09:03.818Z,4.20
2017-09-06T15:11:31.362Z,5.30
2017-09-06T15:13:58.793Z,6.40
2017-09-06T15:16:26.208Z,5.70
2017-09-06T15:18:53.736Z,5.70
2017-09-06T15:21:21.188Z,6.10
2017-09-06T15:23:48.674Z,7.20
2017-09-06T15:26:16.072Z,5.50
2017-09-06T15:28:43.505Z,6.90
2017-09-06T15:31:10.928Z,5.80
2017-09-06T15:33:38.870Z,8.50
2017-09-06T15:36:06.433Z,7.50
2017-09-06T15:38:33.995Z,8.40
2017-09-06T15:41:01.463Z,9.00
2017-09-06T15:43:28.979Z,6.00
2017-09-06T15:45:56.668Z,7.10
2017-09-06T15:48:24.118Z,9.50
2017-09-06T15:50:51.533Z,8.70
2017-09-06T15:53:18.975Z,6.60
2017-09-06T15:55:46.447Z,8.70
2017-09-06T15:58:13.878Z,7.20
2017-09-06T16:05:14.035Z,8.40
2017-09-06T16:07:41.577Z,7.10
2017-09-06T16:10:09.011Z,7.40
2017-09-06T16:12:36.436Z,7.40
2017-09-06T16:15:04.022Z,8.20
2017-09-06T16:17:31.593Z,7.80
2017-09-06T16:19:59.251Z,10.40
2017-09-06T16:22:26.672Z,7.60
2017-09-06T16:24:54.089Z,8.10
2017-09-06T16:27:21.632Z,8.10
2017-09-06T16:29:49.251Z,9.40
2017-09-06T16:32:16.685Z,9.80
2017-09-06T16:34:44.111Z,8.40
2017-09-06T16:37:11.559Z,9.30
2017-09-06T16:39:38.981Z,9.30
2017-09-06T16:42:06.605Z,11.10
2017-09-06T16:44:34.044Z,8.50
2017-09-06T16:47:01.467Z,9.20
2017-09-06T16:49:29.032Z,9.50
2017-09-06T16:51:56.449Z,9.10
2017-09-06T16:54:23.874Z,9.80
2017-09-06T16:56:51.306Z,10.20
2017-09-06T16:59:18.768Z,10.10
2017-09-06T17:01:47.236Z,10.10
2017-09-06T17:04:14.997Z,9.90
2017-09-06T17:06:42.424Z,10.30
2017-09-06T17:09:09.903Z,10.10
2017-09-06T17:11:37.331Z,9.70
2017-09-06T17:14:04.764Z,9.50
2017-09-06T17:16:32.197Z,10.50
2017-09-06T17:18:59.656Z,10.00
2017-09-06T17:21:27.089Z,9.80
2017-09-06T17:23:54.565Z,10.20
2017-09-06T17:26:22.101Z,10.60
2017-09-06T17:28:49.546Z,10.50
2017-09-06T17:31:17.016Z,10.70
2017-09-06T17:33:44.429Z,10.40
2017-09-06T17:36:11.852Z,10.20
2017-09-06T17:38:39.384Z,10.80
2017-09-06T17:41:06.817Z,11.10
2017-09-06T17:43:34.297Z,11.30
2017-09-06T17:46:01.720Z,11.30
2017-09-06T17:48:29.211Z,11.20
2017-09-06T17:50:56.642Z,11.50
2017-09-06T17:53:24.119Z,11.80
2017-09-06T17:55:51.553Z,11.80
2017-09-06T17:58:19.025Z,11.80
2017-09-06T18:00:46.488Z,12.50
2017-09-06T18:03:13.920Z,13.10
2017-09-06T18:05:41.345Z,13.70
2017-09-06T18:08:08.856Z,13.70
2017-09-06T18:10:36.285Z,14.40
2017-09-06T18:13:03.700Z,14.70
2017-09-06T18:15:31.124Z,15.50
2017-09-06T18:17:58.684Z,15.70
2017-09-06T18:20:26.136Z,16.10
2017-09-06T18:22:53.610Z,16.30
2017-09-06T18:25:21.021Z,16.40
2017-09-06T18:27:48.511Z,16.20
2017-09-06T18:30:15.933Z,16.40
2017-09-06T18:32:43.423Z,16.80
2017-09-06T18:35:10.872Z,16.80
2017-09-06T18:37:38.330Z,16.80
2017-09-06T18:40:05.748Z,16.80
2017-09-06T18:42:33.176Z,17.80
2017-09-06T18:45:00.700Z,17.80
2017-09-06T18:47:28.160Z,18.40
2017-09-06T18:49:55.621Z,18.60
2017-09-06T18:52:23.076Z,18.40
2017-09-06T18:54:50.553Z,18.90
2017-09-06T18:57:17.988Z,19.00
2017-09-06T18:59:45.765Z,19.30
2017-09-06T19:02:13.384Z,19.60
2017-09-06T19:04:40.880Z,19.70
2017-09-06T19:07:08.441Z,20.10
2017-09-06T19:09:35.882Z,19.80
2017-09-06T19:12:03.349Z,20.40
2017-09-06T19:14:30.914Z,21.30
2017-09-06T19:16:58.425Z,21.20
2017-09-06T19:19:26.037Z,21.60
2017-09-06T19:21:53.499Z,21.90
2017-09-06T19:24:21.233Z,22.00
2017-09-06T19:26:48.655Z,22.20
2017-09-06T19:29:16.138Z,22.00
2017-09-06T19:31:43.568Z,22.20
2017-09-06T19:34:11.028Z,22.40
2017-09-06T19:36:38.432Z,22.60
2017-09-06T19:39:05.909Z,22.40
2017-09-06T19:41:33.385Z,22.70
2017-09-06T19:44:00.788Z,22.90
2017-09-06T19:46:28.338Z,23.30
2017-09-06T19:48:56.109Z,22.80
2017-09-06T19:51:23.534Z,22.80
2017-09-06T19:53:50.984Z,23.00
2017-09-06T19:56:18.480Z,23.30
2017-09-06T19:58:46.107Z,23.50
2017-09-06T20:01:13.704Z,24.10
2017-09-06T20:03:41.432Z,24.30
2017-09-06T20:06:08.871Z,24.50
2017-09-06T20:08:36.305Z,24.50
2017-09-06T20:11:03.739Z,24.70
2017-09-06T20:13:31.276Z,24.70
2017-09-06T20:15:58.703Z,24.70
2017-09-06T20:18:26.188Z,24.90
2017-09-06T20:20:53.624Z,25.30
2017-09-06T20:23:21.044Z,25.30
2017-09-06T20:25:48.471Z,25.20
2017-09-06T20:28:16.016Z,25.50
2017-09-06T20:30:43.444Z,25.30
2017-09-06T20:33:10.933Z,25.30
2017-09-06T20:35:38.364Z,25.40
2017-09-06T20:38:05.807Z,25.30
2017-09-06T20:40:33.294Z,25.30
2017-09-06T20:43:00.716Z,24.90
2017-09-06T20:45:28.212Z,24.60
2017-09-06T20:47:55.636Z,24.80
2017-09-06T20:50:23.082Z,24.80
2017-09-06T20:52:50.501Z,24.90
2017-09-06T20:55:18.036Z,24.90
2017-09-06T20:57:45.684Z,24.60
2017-09-06T21:00:13.250Z,24.60
2017-09-06T21:02:40.678Z,24.50
2017-09-06T21:05:08.161Z,24.50
2017-09-06T21:07:35.612Z,24.40
2017-09-06T21:10:03.026Z,24.40
2017-09-06T21:12:30.452Z,24.40
2017-09-06T21:14:57.992Z,24.40
2017-09-06T21:17:25.640Z,24.50
2017-09-06T21:19:53.079Z,24.60
2017-09-06T21:22:20.664Z,24.90
2017-09-06T21:24:48.097Z,25.10
2017-09-06T21:27:15.569Z,25.30
2017-09-06T21:29:42.998Z,25.50
2017-09-06T21:32:10.709Z,25.40
2017-09-06T21:34:38.115Z,25.80
2017-09-06T21:37:05.704Z,25.70
2017-09-06T21:39:33.169Z,25.90
2017-09-06T21:42:00.605Z,26.10
2017-09-06T21:44:28.071Z,26.00
2017-09-06T21:46:55.509Z,26.20
2017-09-06T21:49:22.930Z,26.20
2017-09-06T21:51:50.448Z,26.30
2017-09-06T21:54:17.896Z,26.40
2017-09-06T21:56:45.337Z,26.30
2017-09-06T21:59:12.816Z,26.40
2017-09-06T22:01:40.224Z,26.10
2017-09-06T22:04:07.736Z,26.50
2017-09-06T22:06:35.180Z,26.40
2017-09-06T22:09:02.614Z,26.40
2017-09-06T22:11:30.114Z,26.50
2017-09-06T22:13:57.849Z,26.30
2017-09-06T22:16:25.270Z,25.90
2017-09-06T22:18:52.691Z,25.30
2017-09-06T22:21:20.229Z,26.10
2017-09-06T22:23:47.657Z,25.40
2017-09-06T22:26:15.069Z,26.00
2017-09-06T22:28:42.529Z,25.50
2017-09-06T22:31:10.045Z,25.80
2017-09-06T22:33:37.516Z,26.00
2017-09-06T22:36:04.968Z,26.30
2017-09-06T22:38:32.416Z,26.10
2017-09-06T22:40:59.888Z,25.90
2017-09-06T22:43:27.304Z,26.10
2017-09-06T22:45:54.816Z,25.70
2017-09-06T22:48:22.241Z,25.80
2017-09-06T22:50:49.704Z,25.40
2017-09-06T22:53:17.156Z,25.50
2017-09-06T22:55:44.580Z,25.60
2017-09-06T22:58:12.073Z,25.70
2017-09-06T23:00:39.495Z,25.70
2017-09-06T23:03:06.912Z,25.70
2017-09-06T23:05:34.436Z,26.30
2017-09-06T23:08:01.856Z,26.40
2017-09-06T23:10:29.364Z,25.90
2017-09-06T23:12:57.003Z,25.70
2017-09-06T23:15:24.454Z,25.60
2017-09-06T23:17:51.893Z,25.70
2017-09-06T23:20:19.490Z,26.20
2017-09-06T23:22:46.940Z,26.20
2017-09-06T23:25:14.360Z,25.80
2017-09-06T23:27:41.855Z,26.40
2017-09-06T23:30:09.307Z,26.90
2017-09-06T23:32:36.765Z,27.20
2017-09-06T23:35:04.197Z,27.20
2017-09-06T23:37:31.608Z,27.70
2017-09-06T23:39:59.053Z,28.10
2017-09-06T23:42:26.513Z,28.80
2017-09-06T23:44:54.056Z,28.90
2017-09-06T23:47:21.497Z,28.50
2017-09-06T23:49:48.954Z,28.80
2017-09-06T23:52:16.389Z,28.90
2017-09-06T23:54:43.796Z,29.20
2017-09-06T23:57:11.332Z,28.90
2017-09-06T23:59:38.785Z,28.60
